createdAt,value
2018-03-17T00:01:41.609Z,6.27
2018-03-17T00:04:09.091Z,6.19
2018-03-17T00:06:37.553Z,6.08
2018-03-17T00:09:05.068Z,6.15
2018-03-17T00:11:32.611Z,6.04
2018-03-17T00:14:00.090Z,6.01
2018-03-17T00:16:27.580Z,5.97
2018-03-17T00:18:55.063Z,5.90
2018-03-17T00:21:22.893Z,5.92
2018-03-17T00:23:50.399Z,6.03
2018-03-17T00:26:18.033Z,6.01
2018-03-17T00:28:45.524Z,5.93
2018-03-17T00:31:13.041Z,5.95
2018-03-17T00:33:40.537Z,5.98
2018-03-17T00:36:08.291Z,5.85
2018-03-17T00:38:35.765Z,5.78
2018-03-17T00:41:03.261Z,5.79
2018-03-17T00:43:31.384Z,5.67
2018-03-17T00:45:58.902Z,5.65
2018-03-17T00:48:26.643Z,5.58
2018-03-17T00:50:54.338Z,5.54
2018-03-17T00:53:21.843Z,5.47
2018-03-17T00:55:49.348Z,5.36
2018-03-17T00:58:17.628Z,5.30
2018-03-17T01:00:46.140Z,5.28
2018-03-17T01:03:13.615Z,5.18
2018-03-17T01:05:41.132Z,5.20
2018-03-17T01:08:09.027Z,5.18
2018-03-17T01:10:38.904Z,5.11
2018-03-17T01:13:06.386Z,5.11
2018-03-17T01:15:34.039Z,5.14
2018-03-17T01:18:01.670Z,5.06
2018-03-17T01:20:31.316Z,5.00
2018-03-17T01:22:58.862Z,4.95
2018-03-17T01:25:28.414Z,4.96
2018-03-17T01:27:55.997Z,4.97
2018-03-17T01:30:24.551Z,4.96
2018-03-17T01:32:53.517Z,4.89
2018-03-17T01:35:21.096Z,4.78
2018-03-17T01:37:49.057Z,4.77
2018-03-17T01:40:16.565Z,4.80
2018-03-17T01:42:44.070Z,4.76
2018-03-17T01:45:11.597Z,4.77
2018-03-17T01:47:39.500Z,4.56
2018-03-17T01:50:07.848Z,4.55
2018-03-17T01:52:35.352Z,4.35
2018-03-17T01:55:02.888Z,4.25
2018-03-17T01:57:30.356Z,4.25
2018-03-17T01:59:57.820Z,4.26
2018-03-17T02:02:25.320Z,4.25
2018-03-17T02:04:52.802Z,4.16
2018-03-17T02:07:20.321Z,4.17
2018-03-17T02:09:47.776Z,4.17
2018-03-17T02:12:15.284Z,4.13
2018-03-17T02:17:17.625Z,4.07
2018-03-17T02:19:46.824Z,4.10
2018-03-17T02:22:14.500Z,4.00
2018-03-17T02:24:42.786Z,4.02
2018-03-17T02:27:11.150Z,3.91
2018-03-17T02:29:38.718Z,3.88
2018-03-17T02:32:06.205Z,3.88
2018-03-17T02:34:33.913Z,3.90
2018-03-17T02:37:01.408Z,3.91
2018-03-17T02:39:28.974Z,3.96
2018-03-17T02:41:56.440Z,3.98
2018-03-17T02:44:23.905Z,3.99
2018-03-17T02:46:51.401Z,4.00
2018-03-17T02:49:19.296Z,3.91
2018-03-17T02:51:47.537Z,3.85
2018-03-17T02:54:15.027Z,3.89
2018-03-17T02:56:43.006Z,3.94
2018-03-17T02:59:10.492Z,3.94
2018-03-17T03:01:37.959Z,3.80
2018-03-17T03:04:05.442Z,3.71
2018-03-17T03:06:32.924Z,3.58
2018-03-17T03:09:00.449Z,3.53
2018-03-17T03:11:27.942Z,3.54
2018-03-17T03:13:55.437Z,3.50
2018-03-17T03:16:22.928Z,3.48
2018-03-17T03:18:50.429Z,3.48
2018-03-17T03:21:18.033Z,3.58
2018-03-17T03:23:45.520Z,3.54
2018-03-17T03:26:13.120Z,3.45
2018-03-17T03:28:40.650Z,3.48
2018-03-17T03:31:08.154Z,3.42
2018-03-17T03:33:35.620Z,3.37
2018-03-17T03:36:03.077Z,3.36
2018-03-17T03:38:31.047Z,3.39
2018-03-17T03:40:58.559Z,3.25
2018-03-17T03:43:26.039Z,3.30
2018-03-17T03:45:53.501Z,3.36
2018-03-17T03:48:20.995Z,3.36
2018-03-17T03:50:48.667Z,3.26
2018-03-17T03:53:16.170Z,3.20
2018-03-17T03:55:43.658Z,3.08
2018-03-17T03:58:11.154Z,2.91
2018-03-17T04:00:39.375Z,2.79
2018-03-17T04:03:06.918Z,2.82
2018-03-17T04:05:34.427Z,2.86
2018-03-17T04:08:01.943Z,2.89
2018-03-17T04:10:30.142Z,2.94
2018-03-17T04:12:57.608Z,3.00
2018-03-17T04:15:25.086Z,2.97
2018-03-17T04:17:52.548Z,2.99
2018-03-17T04:20:20.036Z,2.88
2018-03-17T04:22:47.536Z,2.97
2018-03-17T04:25:15.016Z,2.92
2018-03-17T04:27:42.563Z,2.85
2018-03-17T04:30:10.074Z,2.77
2018-03-17T04:32:37.572Z,2.68
2018-03-17T04:35:05.128Z,2.66
2018-03-17T04:37:32.666Z,2.53
2018-03-17T04:40:00.158Z,2.56
2018-03-17T04:42:27.762Z,2.52
2018-03-17T04:44:55.241Z,2.50
2018-03-17T04:47:22.724Z,2.47
2018-03-17T04:49:50.186Z,2.54
2018-03-17T04:52:17.762Z,2.52
2018-03-17T04:54:45.492Z,2.51
2018-03-17T04:57:12.990Z,2.51
2018-03-17T04:59:40.484Z,2.45
2018-03-17T05:02:08.000Z,2.57
2018-03-17T05:04:35.472Z,2.59
2018-03-17T05:07:02.961Z,2.54
2018-03-17T05:09:30.441Z,2.51
2018-03-17T05:11:57.900Z,2.45
2018-03-17T05:14:25.399Z,2.39
2018-03-17T05:16:53.268Z,2.49
2018-03-17T05:19:20.732Z,2.56
2018-03-17T05:21:48.217Z,2.63
2018-03-17T05:24:15.688Z,2.66
2018-03-17T05:26:43.248Z,2.64
2018-03-17T05:29:10.800Z,2.55
2018-03-17T05:31:38.276Z,2.48
2018-03-17T05:34:05.754Z,2.47
2018-03-17T05:36:33.202Z,2.58
2018-03-17T05:39:00.702Z,2.52
2018-03-17T05:41:28.232Z,2.59
2018-03-17T05:43:55.708Z,2.60
2018-03-17T05:46:23.232Z,2.38
2018-03-17T05:48:50.702Z,2.23
2018-03-17T05:51:19.284Z,2.21
2018-03-17T05:53:46.753Z,2.24
2018-03-17T05:56:14.472Z,2.22
2018-03-17T05:58:41.988Z,2.37
2018-03-17T06:01:09.465Z,2.37
2018-03-17T06:03:36.953Z,2.41
2018-03-17T06:06:04.433Z,2.25
2018-03-17T06:08:33.297Z,2.25
2018-03-17T06:11:00.764Z,2.28
2018-03-17T06:13:28.293Z,2.35
2018-03-17T06:15:55.775Z,2.42
2018-03-17T06:18:24.507Z,2.48
2018-03-17T06:20:52.032Z,2.59
2018-03-17T06:23:19.508Z,2.57
2018-03-17T06:25:47.009Z,2.38
2018-03-17T06:28:14.572Z,2.30
2018-03-17T06:30:42.115Z,2.33
2018-03-17T06:33:09.597Z,2.41
2018-03-17T06:35:37.084Z,2.46
2018-03-17T06:38:04.562Z,2.45
2018-03-17T06:40:32.095Z,2.37
2018-03-17T06:42:59.614Z,2.49
2018-03-17T06:45:27.084Z,2.51
2018-03-17T06:47:54.656Z,2.65
2018-03-17T06:50:22.192Z,2.78
2018-03-17T06:52:49.913Z,2.85
2018-03-17T06:55:17.501Z,2.85
2018-03-17T06:57:45.001Z,2.62
2018-03-17T07:00:12.573Z,2.60
2018-03-17T07:02:40.504Z,2.51
2018-03-17T07:05:08.278Z,2.39
2018-03-17T07:07:35.781Z,2.42
2018-03-17T07:10:04.278Z,2.52
2018-03-17T07:12:31.748Z,2.61
2018-03-17T07:14:59.353Z,2.84
2018-03-17T07:17:26.908Z,2.75
2018-03-17T07:19:54.391Z,2.79
2018-03-17T07:22:21.848Z,2.72
2018-03-17T07:24:49.565Z,2.65
2018-03-17T07:27:17.101Z,2.57
2018-03-17T07:29:44.837Z,2.68
2018-03-17T07:32:12.288Z,2.78
2018-03-17T07:34:39.755Z,2.78
2018-03-17T07:37:07.317Z,2.64
2018-03-17T07:39:34.803Z,2.67
2018-03-17T07:42:02.274Z,2.72
2018-03-17T07:44:30.238Z,2.90
2018-03-17T07:46:57.724Z,2.82
2018-03-17T07:49:25.816Z,2.85
2018-03-17T07:51:53.276Z,2.76
2018-03-17T07:54:20.829Z,2.58
2018-03-17T07:56:48.291Z,2.68
2018-03-17T07:59:15.784Z,2.91
2018-03-17T08:01:43.274Z,2.74
2018-03-17T08:04:10.853Z,2.56
2018-03-17T08:06:38.306Z,2.54
2018-03-17T08:09:05.792Z,2.33
2018-03-17T08:11:33.254Z,2.42
2018-03-17T08:14:00.696Z,2.53
2018-03-17T08:16:28.502Z,2.51
2018-03-17T08:18:55.989Z,2.69
2018-03-17T08:21:23.512Z,2.67
2018-03-17T08:23:51.072Z,2.71
2018-03-17T08:26:22.456Z,2.78
2018-03-17T08:28:49.977Z,2.76
2018-03-17T08:31:17.644Z,2.82
2018-03-17T08:33:45.120Z,2.81
2018-03-17T08:36:12.663Z,2.80
2018-03-17T08:38:40.153Z,2.85
2018-03-17T08:41:07.615Z,2.84
2018-03-17T08:43:35.104Z,2.82
2018-03-17T08:46:02.683Z,2.65
2018-03-17T08:48:30.262Z,2.65
2018-03-17T08:50:57.765Z,2.71
2018-03-17T08:53:25.257Z,2.84
2018-03-17T08:55:52.891Z,2.97
2018-03-17T08:58:20.408Z,2.89
2018-03-17T09:00:48.662Z,2.78
2018-03-17T09:03:16.506Z,2.62
2018-03-17T09:05:44.017Z,2.65
2018-03-17T09:08:11.542Z,2.47
2018-03-17T09:10:39.097Z,2.50
2018-03-17T09:13:06.588Z,2.62
2018-03-17T09:15:34.113Z,2.49
2018-03-17T09:18:01.822Z,2.53
2018-03-17T09:20:29.488Z,2.39
2018-03-17T09:22:57.046Z,2.31
2018-03-17T09:25:24.665Z,2.42
2018-03-17T09:27:52.215Z,2.50
2018-03-17T09:30:19.740Z,2.62
2018-03-17T09:32:47.223Z,2.67
2018-03-17T09:35:14.697Z,2.65
2018-03-17T09:37:42.477Z,2.71
2018-03-17T09:40:09.977Z,2.41
2018-03-17T09:42:37.427Z,2.42
2018-03-17T09:45:04.915Z,2.66
2018-03-17T09:47:32.411Z,2.59
2018-03-17T09:49:59.919Z,2.57
2018-03-17T09:52:27.487Z,2.60
2018-03-17T09:54:55.045Z,2.75
2018-03-17T09:57:23.433Z,2.72
2018-03-17T09:59:50.946Z,2.87
2018-03-17T10:02:18.563Z,2.97
2018-03-17T10:04:46.178Z,2.94
2018-03-17T10:07:13.737Z,2.85
2018-03-17T10:09:41.288Z,2.63
2018-03-17T10:12:08.778Z,2.68
2018-03-17T10:14:36.331Z,2.74
2018-03-17T10:17:03.934Z,2.69
2018-03-17T10:19:31.477Z,2.79
2018-03-17T10:21:59.019Z,2.80
2018-03-17T10:24:26.755Z,2.74
2018-03-17T10:26:55.379Z,2.74
2018-03-17T10:29:22.881Z,2.79
2018-03-17T10:31:50.365Z,2.71
2018-03-17T10:34:17.841Z,2.64
2018-03-17T10:36:48.510Z,2.58
2018-03-17T10:39:16.349Z,2.63
2018-03-17T10:41:43.948Z,2.86
2018-03-17T10:44:11.441Z,2.74
2018-03-17T10:46:38.953Z,2.86
2018-03-17T10:49:06.419Z,2.76
2018-03-17T10:51:33.901Z,2.54
2018-03-17T10:54:01.388Z,2.46
2018-03-17T10:56:28.972Z,2.59
2018-03-17T10:58:56.508Z,2.55
2018-03-17T11:01:25.915Z,2.66
2018-03-17T11:03:53.379Z,2.77
2018-03-17T11:06:21.107Z,2.86
2018-03-17T11:21:43.740Z,2.21
2018-03-17T11:24:11.329Z,2.19
2018-03-17T11:26:38.867Z,2.32
2018-03-17T11:29:06.931Z,2.38
2018-03-17T11:31:37.348Z,2.46
2018-03-17T11:34:08.250Z,2.44
2018-03-17T11:52:40.917Z,2.09
2018-03-17T11:55:08.492Z,2.21
2018-03-17T11:57:36.042Z,2.22
2018-03-17T12:00:04.354Z,2.07
2018-03-17T12:02:32.362Z,2.09
2018-03-17T12:04:59.868Z,2.00
2018-03-17T12:07:28.858Z,1.94
2018-03-17T12:09:56.501Z,1.92
2018-03-17T12:12:24.328Z,1.70
2018-03-17T12:14:51.977Z,1.65
2018-03-17T12:17:19.757Z,1.66
2018-03-17T12:19:47.337Z,1.67
2018-03-17T12:22:19.507Z,1.78
2018-03-17T12:24:48.821Z,1.66
2018-03-17T12:27:20.628Z,1.67
2018-03-17T12:29:48.216Z,1.58
2018-03-17T12:32:16.184Z,1.46
2018-03-17T12:34:43.699Z,1.40
2018-03-17T12:37:12.351Z,1.38
2018-03-17T12:39:39.976Z,1.31
2018-03-17T12:42:07.826Z,1.36
2018-03-17T12:44:37.524Z,1.30
2018-03-17T12:47:05.958Z,1.30
2018-03-17T12:49:34.841Z,1.28
2018-03-17T13:05:02.099Z,1.20
2018-03-17T13:07:29.652Z,1.28
2018-03-17T13:09:57.199Z,1.20
2018-03-17T13:12:26.756Z,1.18
2018-03-17T13:14:58.459Z,1.07
2018-03-17T13:29:21.484Z,0.97
2018-03-17T13:31:49.448Z,0.86
2018-03-17T13:37:00.962Z,0.92
2018-03-17T13:39:28.666Z,1.03
2018-03-17T13:41:56.151Z,0.96
2018-03-17T13:44:23.624Z,0.87
2018-03-17T13:46:52.367Z,0.85
2018-03-17T13:49:20.824Z,0.81
2018-03-17T13:51:48.304Z,0.82
2018-03-17T13:54:15.796Z,0.79
2018-03-17T13:56:43.312Z,0.84
2018-03-17T13:59:10.796Z,0.76
2018-03-17T14:01:39.411Z,0.76
2018-03-17T14:04:06.891Z,0.73
2018-03-17T14:06:34.436Z,0.72
2018-03-17T14:09:01.923Z,0.77
2018-03-17T14:11:30.322Z,0.67
2018-03-17T14:14:02.474Z,0.64
2018-03-17T14:16:31.686Z,0.67
2018-03-17T14:18:59.236Z,0.71
2018-03-17T14:21:26.727Z,0.64
2018-03-17T14:23:54.307Z,0.54
2018-03-17T14:26:21.755Z,0.52
2018-03-17T14:28:49.461Z,0.42
2018-03-17T14:31:17.146Z,0.45
2018-03-17T14:33:44.547Z,0.39
2018-03-17T14:36:12.044Z,0.47
2018-03-17T14:38:40.316Z,0.49
2018-03-17T14:41:07.847Z,0.53
2018-03-17T14:43:35.375Z,0.48
2018-03-17T14:46:02.882Z,0.32
2018-03-17T14:48:30.980Z,0.17
2018-03-17T14:50:58.539Z,0.28
2018-03-17T14:53:26.116Z,0.16
2018-03-17T14:55:53.771Z,0.25
2018-03-17T14:58:21.601Z,0.21
2018-03-17T15:00:49.105Z,0.14
2018-03-17T15:03:17.104Z,0.23
2018-03-17T15:05:44.587Z,0.26
2018-03-17T15:08:12.130Z,0.33
2018-03-17T15:10:39.677Z,0.36
2018-03-17T15:13:08.873Z,0.34
2018-03-17T15:15:38.080Z,0.30
2018-03-17T15:18:05.707Z,0.31
2018-03-17T15:20:34.878Z,0.23
2018-03-17T15:23:02.457Z,0.18
2018-03-17T15:25:29.962Z,0.13
2018-03-17T15:27:57.456Z,-0.02
2018-03-17T15:30:26.864Z,-0.04
2018-03-17T15:32:54.356Z,-0.03
2018-03-17T15:35:21.828Z,-0.01
2018-03-17T15:37:49.488Z,-0.02
2018-03-17T15:40:17.508Z,-0.02
2018-03-17T15:42:45.097Z,-0.03
2018-03-17T15:45:17.756Z,-0.04
2018-03-17T15:47:49.932Z,-0.06
2018-03-17T15:50:19.584Z,-0.14
2018-03-17T15:52:50.639Z,-0.18
2018-03-17T15:55:18.225Z,-0.15
2018-03-17T15:57:45.742Z,-0.19
2018-03-17T16:00:13.228Z,-0.23
2018-03-17T16:02:41.375Z,-0.21
2018-03-17T16:05:08.883Z,-0.20
2018-03-17T16:07:36.687Z,-0.18
2018-03-17T16:10:06.199Z,-0.11
2018-03-17T16:12:33.757Z,-0.04
2018-03-17T16:15:01.243Z,-0.17
2018-03-17T16:17:28.981Z,-0.18
2018-03-17T16:19:56.482Z,-0.17
2018-03-17T16:22:24.004Z,-0.12
2018-03-17T16:24:53.222Z,-0.04
2018-03-17T16:27:20.945Z,-0.22
2018-03-17T16:29:49.384Z,-0.19
2018-03-17T16:32:18.271Z,-0.12
2018-03-17T16:34:46.172Z,-0.23
2018-03-17T16:37:13.757Z,-0.20
2018-03-17T16:39:41.265Z,-0.19
2018-03-17T16:42:08.776Z,-0.13
2018-03-17T16:44:36.529Z,-0.17
2018-03-17T16:47:04.149Z,-0.26
2018-03-17T16:49:31.676Z,-0.32
2018-03-17T16:51:59.214Z,-0.23
2018-03-17T16:54:28.283Z,-0.25
2018-03-17T16:56:55.949Z,-0.20
2018-03-17T16:59:23.463Z,-0.24
2018-03-17T17:01:50.955Z,-0.19
2018-03-17T17:04:18.443Z,-0.13
2018-03-17T17:06:46.228Z,-0.15
2018-03-17T17:09:13.813Z,-0.24
2018-03-17T17:11:41.312Z,-0.36
2018-03-17T17:14:08.831Z,-0.41
2018-03-17T17:16:36.324Z,-0.33
2018-03-17T17:19:03.816Z,-0.39
2018-03-17T17:21:31.407Z,-0.37
2018-03-17T17:23:58.946Z,-0.49
2018-03-17T17:26:26.488Z,-0.50
2018-03-17T17:28:53.968Z,-0.50
2018-03-17T17:31:21.761Z,-0.49
2018-03-17T17:33:49.283Z,-0.45
2018-03-17T17:36:17.481Z,-0.62
2018-03-17T17:38:44.977Z,-0.65
2018-03-17T17:41:14.597Z,-0.55
2018-03-17T17:56:45.281Z,-0.77
2018-03-17T17:59:13.319Z,-0.82
2018-03-17T18:11:30.356Z,-0.95
2018-03-17T18:29:34.658Z,-0.96
2018-03-17T18:32:02.375Z,-0.96
2018-03-17T18:34:29.985Z,-0.97
2018-03-17T18:36:59.544Z,-0.94
2018-03-17T18:39:27.281Z,-0.97
2018-03-17T18:41:54.800Z,-1.00
2018-03-17T18:44:22.292Z,-0.96
2018-03-17T18:46:49.830Z,-1.03
2018-03-17T18:49:17.437Z,-1.04
2018-03-17T18:51:44.923Z,-1.09
2018-03-17T18:54:12.434Z,-1.13
2018-03-17T18:56:39.948Z,-1.20
2018-03-17T18:59:07.450Z,-1.16
2018-03-17T19:01:34.943Z,-1.14
2018-03-17T19:04:02.472Z,-1.10
2018-03-17T19:06:29.982Z,-1.11
2018-03-17T19:08:57.481Z,-1.18
2018-03-17T19:11:24.993Z,-1.21
2018-03-17T19:13:52.550Z,-1.21
2018-03-17T19:16:20.032Z,-1.26
2018-03-17T19:18:47.525Z,-1.21
2018-03-17T19:21:15.040Z,-1.25
2018-03-17T19:23:42.622Z,-1.22
2018-03-17T19:26:10.135Z,-1.19
2018-03-17T19:28:37.632Z,-1.20
2018-03-17T19:31:05.181Z,-1.19
2018-03-17T19:33:32.653Z,-1.23
2018-03-17T19:36:00.131Z,-1.34
2018-03-17T19:38:27.619Z,-1.22
2018-03-17T19:40:55.167Z,-1.16
2018-03-17T19:43:22.665Z,-1.29
2018-03-17T19:45:50.182Z,-1.35
2018-03-17T19:48:17.747Z,-1.50
2018-03-17T19:50:45.249Z,-1.53
2018-03-17T19:53:12.724Z,-1.47
2018-03-17T19:55:40.259Z,-1.50
2018-03-17T19:58:07.745Z,-1.58
2018-03-17T20:00:35.220Z,-1.57
2018-03-17T20:03:02.759Z,-1.63
2018-03-17T20:05:30.296Z,-1.67
2018-03-17T20:07:57.828Z,-1.73
2018-03-17T20:10:25.355Z,-1.76
2018-03-17T20:12:52.833Z,-1.80
2018-03-17T20:15:20.356Z,-1.86
2018-03-17T20:17:47.862Z,-1.92
2018-03-17T20:20:16.595Z,-1.89
2018-03-17T20:22:44.132Z,-1.86
2018-03-17T20:25:11.651Z,-1.97
2018-03-17T20:27:39.142Z,-2.04
2018-03-17T20:30:06.630Z,-2.17
2018-03-17T20:32:34.107Z,-2.21
2018-03-17T20:35:01.659Z,-2.23
2018-03-17T20:37:29.169Z,-2.20
2018-03-17T20:39:56.644Z,-2.12
2018-03-17T20:42:24.510Z,-2.17
2018-03-17T20:44:52.034Z,-2.19
2018-03-17T20:47:19.530Z,-2.24
2018-03-17T20:49:46.996Z,-2.34
2018-03-17T20:52:14.769Z,-2.36
2018-03-17T20:54:42.252Z,-2.33
2018-03-17T20:57:09.736Z,-2.29
2018-03-17T20:59:37.223Z,-2.44
2018-03-17T21:02:04.753Z,-2.47
2018-03-17T21:04:32.251Z,-2.48
2018-03-17T21:06:59.772Z,-2.44
2018-03-17T21:09:27.261Z,-2.45
2018-03-17T21:11:54.837Z,-2.50
2018-03-17T21:14:22.331Z,-2.46
2018-03-17T21:16:49.840Z,-2.41
2018-03-17T21:19:17.388Z,-2.43
2018-03-17T21:21:44.869Z,-2.40
2018-03-17T21:24:12.376Z,-2.33
2018-03-17T21:26:39.908Z,-2.27
2018-03-17T21:29:07.447Z,-2.29
2018-03-17T21:31:34.966Z,-2.26
2018-03-17T21:34:02.436Z,-2.40
2018-03-17T21:36:29.923Z,-2.37
2018-03-17T21:38:57.425Z,-2.44
2018-03-17T21:41:24.926Z,-2.38
2018-03-17T21:43:52.464Z,-2.36
2018-03-17T21:46:20.123Z,-2.41
2018-03-17T21:48:47.747Z,-2.34
2018-03-17T21:53:48.542Z,-2.40
2018-03-17T21:56:17.092Z,-2.41
2018-03-17T21:58:46.276Z,-2.47
2018-03-17T22:01:13.743Z,-2.49
2018-03-17T22:03:42.033Z,-2.52
2018-03-17T22:06:09.813Z,-2.51
2018-03-17T22:11:21.110Z,-2.42
2018-03-17T22:16:23.186Z,-2.51
2018-03-17T22:28:34.277Z,-2.54
2018-03-17T22:31:02.810Z,-2.50
2018-03-17T22:33:30.318Z,-2.54
2018-03-17T22:35:59.831Z,-2.62
2018-03-17T22:51:23.425Z,-2.67
2018-03-17T22:53:50.915Z,-2.68
2018-03-17T22:56:18.399Z,-2.76
2018-03-17T22:58:45.866Z,-2.67
2018-03-17T23:01:13.352Z,-2.69
2018-03-17T23:03:40.842Z,-2.85
2018-03-17T23:06:08.356Z,-2.80
2018-03-17T23:08:35.822Z,-2.76
2018-03-17T23:11:03.352Z,-2.74
2018-03-17T23:13:30.859Z,-2.78
2018-03-17T23:15:58.361Z,-2.83
2018-03-17T23:18:26.584Z,-2.79
2018-03-17T23:30:35.325Z,-2.93
2018-03-17T23:33:03.171Z,-2.85
2018-03-17T23:35:35.023Z,-2.76
2018-03-17T23:38:04.301Z,-2.82
2018-03-17T23:40:36.259Z,-2.88
2018-03-17T23:43:04.086Z,-2.90
2018-03-17T23:45:45.765Z,-2.93
2018-03-17T23:48:14.869Z,-2.86
2018-03-17T23:50:42.898Z,-2.89
2018-03-17T23:53:10.488Z,-2.93
2018-03-17T23:55:38.161Z,-2.85
2018-03-17T23:58:07.910Z,-2.85
